This is the latest recevied weather packets stored in our database for station/object EA1GLE. If no packets are shown the sender has not sent any weather packets the latest 10 day(s).
| Time | Temp. | Humidity | Pressure | Rain* | Wind** | Luminosity | Snow |
|---|---|---|---|---|---|---|---|
| 1777633878 | 20° C | 55% | 1020.8 hPa | 0 mm | - | 776 W/m² | - |
| 1777629603 | 18.33° C | 63% | 1021.1 hPa | 0 mm | - | 784 W/m² | - |
| 1777629243 | 18.89° C | 65% | 1021 hPa | 0 mm | - | 350 W/m² | - |
| 1777620424 | 13.89° C | 84% | 1020.9 hPa | 0 mm | - | 167 W/m² | - |
| 1777619343 | 13.33° C | 93% | 1020.7 hPa | 0 mm | - | 180 W/m² | - |
| 1777616959 | 10° C | 99% | 1021 hPa | 0 mm | - | 56 W/m² | - |
| 1777609217 | 10.56° C | 99% | 1020.4 hPa | 0 mm | - | 0 W/m² | - |
| 1777607644 | 10.56° C | 98% | 1020.2 hPa | 0 mm | - | 0 W/m² | - |
| 1777606023 | 11.11° C | 97% | 1020.3 hPa | 0 mm | - | 0 W/m² | - |
| 1777603503 | 11.11° C | 97% | 1020.4 hPa | 0 mm | - | 0 W/m² | - |
| 1777600804 | 11.67° C | 96% | 1020.4 hPa | 0 mm | - | 0 W/m² | - |
| 1777596843 | 11.67° C | 96% | 1020.5 hPa | 0 mm | - | 0 W/m² | - |
| 1777592703 | 11.11° C | 98% | 1020.6 hPa | 0 mm | - | 0 W/m² | - |
| 1777590544 | 11.11° C | 98% | 1020.6 hPa | 0 mm | - | 0 W/m² | - |
| 1777589104 | 11.67° C | 97% | 1020.5 hPa | 0 mm | - | 0 W/m² | - |
| 1777588023 | 10.56° C | 97% | 1020.6 hPa | 0 mm | - | 0 W/m² | - |
| 1777587483 | 11.11° C | 97% | 1020.6 hPa | 0 mm | - | 0 W/m² | - |
| 1777586404 | 10° C | 97% | 1020.7 hPa | 0 mm | - | 0 W/m² | - |
| 1777584963 | 10.56° C | 97% | 1020.6 hPa | 0 mm | - | 0 W/m² | - |
| 1777582037 | 11.11° C | 93% | 1020.4 hPa | 0 mm | - | 0 W/m² | - |
| 1777580958 | 11.67° C | 92% | 1020.4 hPa | 0 mm | - | 0 W/m² | - |
| 1777579338 | 12.22° C | 90% | 1020.1 hPa | 0 mm | - | 0 W/m² | - |
| 1777576683 | 13.33° C | 87% | 1019.4 hPa | 0 mm | - | 0 W/m² | - |
| 1777571104 | 16.67° C | 67% | 1019.1 hPa | 0 mm | - | 74 W/m² | - |
| 1777568044 | 16.67° C | 68% | 1019.1 hPa | 0 mm | - | 106 W/m² | - |
* Rain latest hour (hover to see other rain measurements)
** Current wind speed in m/s (hover to see current wind gust speed)